sensor_id;sensor_type;location;lat;lon;timestamp;temperature;humidity
50955;DHT22;36966;48.064;-0.792;2022-11-24T00:01:05;17.50;54.90
50955;DHT22;36966;48.064;-0.792;2022-11-24T00:03:24;17.60;54.80
50955;DHT22;36966;48.064;-0.792;2022-11-24T00:05:44;17.60;54.90
50955;DHT22;36966;48.064;-0.792;2022-11-24T00:08:03;17.60;54.80
50955;DHT22;36966;48.064;-0.792;2022-11-24T00:10:22;17.50;54.80
50955;DHT22;36966;48.064;-0.792;2022-11-24T00:12:41;17.50;54.80
50955;DHT22;36966;48.064;-0.792;2022-11-24T00:15:01;17.50;54.80
50955;DHT22;36966;48.064;-0.792;2022-11-24T00:17:20;17.50;54.80
50955;DHT22;36966;48.064;-0.792;2022-11-24T00:19:39;17.50;54.70
50955;DHT22;36966;48.064;-0.792;2022-11-24T00:21:58;17.50;54.70
50955;DHT22;36966;48.064;-0.792;2022-11-24T00:24:17;17.50;54.70
50955;DHT22;36966;48.064;-0.792;2022-11-24T00:26:37;17.50;54.60
50955;DHT22;36966;48.064;-0.792;2022-11-24T00:28:59;17.50;54.70
50955;DHT22;36966;48.064;-0.792;2022-11-24T00:31:29;17.50;54.70
50955;DHT22;36966;48.064;-0.792;2022-11-24T00:33:50;17.40;54.60
50955;DHT22;36966;48.064;-0.792;2022-11-24T00:36:10;17.50;54.70
50955;DHT22;36966;48.064;-0.792;2022-11-24T00:38:29;17.50;54.60
50955;DHT22;36966;48.064;-0.792;2022-11-24T00:40:50;17.40;54.60
50955;DHT22;36966;48.064;-0.792;2022-11-24T00:43:09;17.50;54.60
50955;DHT22;36966;48.064;-0.792;2022-11-24T00:45:28;17.50;54.60
50955;DHT22;36966;48.064;-0.792;2022-11-24T00:47:48;17.50;54.50
50955;DHT22;36966;48.064;-0.792;2022-11-24T00:50:07;17.40;54.50
50955;DHT22;36966;48.064;-0.792;2022-11-24T00:52:26;17.50;54.40
50955;DHT22;36966;48.064;-0.792;2022-11-24T00:54:45;17.40;54.40
50955;DHT22;36966;48.064;-0.792;2022-11-24T00:57:04;17.40;54.40
50955;DHT22;36966;48.064;-0.792;2022-11-24T00:59:23;17.40;54.40
50955;DHT22;36966;48.064;-0.792;2022-11-24T01:01:42;17.40;54.30
50955;DHT22;36966;48.064;-0.792;2022-11-24T01:04:02;17.40;54.40
50955;DHT22;36966;48.064;-0.792;2022-11-24T01:06:23;17.40;54.30
50955;DHT22;36966;48.064;-0.792;2022-11-24T01:08:44;17.40;54.30
50955;DHT22;36966;48.064;-0.792;2022-11-24T01:13:31;17.40;54.30
50955;DHT22;36966;48.064;-0.792;2022-11-24T01:15:50;17.40;54.30
50955;DHT22;36966;48.064;-0.792;2022-11-24T01:18:09;17.40;54.30
50955;DHT22;36966;48.064;-0.792;2022-11-24T01:20:29;17.40;54.20
50955;DHT22;36966;48.064;-0.792;2022-11-24T01:22:48;17.40;54.20
50955;DHT22;36966;48.064;-0.792;2022-11-24T01:25:09;17.40;54.20
50955;DHT22;36966;48.064;-0.792;2022-11-24T01:27:29;17.40;54.20
50955;DHT22;36966;48.064;-0.792;2022-11-24T01:29:48;17.40;54.20
50955;DHT22;36966;48.064;-0.792;2022-11-24T01:32:07;17.40;54.10
50955;DHT22;36966;48.064;-0.792;2022-11-24T01:34:26;17.40;54.20
50955;DHT22;36966;48.064;-0.792;2022-11-24T01:36:46;17.40;54.10
50955;DHT22;36966;48.064;-0.792;2022-11-24T01:39:05;17.40;54.10
50955;DHT22;36966;48.064;-0.792;2022-11-24T01:41:25;17.40;54.10
50955;DHT22;36966;48.064;-0.792;2022-11-24T01:43:46;17.40;54.10
50955;DHT22;36966;48.064;-0.792;2022-11-24T01:46:32;17.30;54.10
50955;DHT22;36966;48.064;-0.792;2022-11-24T01:51:28;17.30;54.10
50955;DHT22;36966;48.064;-0.792;2022-11-24T01:53:53;17.30;54.00
50955;DHT22;36966;48.064;-0.792;2022-11-24T01:56:15;17.30;54.00
50955;DHT22;36966;48.064;-0.792;2022-11-24T01:58:36;17.40;54.00
50955;DHT22;36966;48.064;-0.792;2022-11-24T02:00:56;17.30;53.90
50955;DHT22;36966;48.064;-0.792;2022-11-24T02:03:17;17.30;53.90
50955;DHT22;36966;48.064;-0.792;2022-11-24T02:05:45;17.30;53.90
50955;DHT22;36966;48.064;-0.792;2022-11-24T02:08:12;17.30;53.90
50955;DHT22;36966;48.064;-0.792;2022-11-24T02:10:33;17.30;53.90
50955;DHT22;36966;48.064;-0.792;2022-11-24T02:12:55;17.30;53.90
50955;DHT22;36966;48.064;-0.792;2022-11-24T02:15:16;17.30;53.90
50955;DHT22;36966;48.064;-0.792;2022-11-24T02:17:36;17.30;53.90
50955;DHT22;36966;48.064;-0.792;2022-11-24T02:20:15;17.30;53.80
50955;DHT22;36966;48.064;-0.792;2022-11-24T02:27:52;17.30;53.80
50955;DHT22;36966;48.064;-0.792;2022-11-24T02:30:12;17.30;53.80
50955;DHT22;36966;48.064;-0.792;2022-11-24T02:32:32;17.30;53.90
50955;DHT22;36966;48.064;-0.792;2022-11-24T02:35:00;17.30;53.90
50955;DHT22;36966;48.064;-0.792;2022-11-24T02:37:19;17.30;53.80
50955;DHT22;36966;48.064;-0.792;2022-11-24T02:39:39;17.30;53.80
50955;DHT22;36966;48.064;-0.792;2022-11-24T02:42:00;17.30;53.80
50955;DHT22;36966;48.064;-0.792;2022-11-24T02:44:23;17.20;53.80
50955;DHT22;36966;48.064;-0.792;2022-11-24T02:46:43;17.30;53.80
50955;DHT22;36966;48.064;-0.792;2022-11-24T02:49:02;17.30;53.80
50955;DHT22;36966;48.064;-0.792;2022-11-24T02:51:21;17.30;53.80
50955;DHT22;36966;48.064;-0.792;2022-11-24T02:53:41;17.20;53.80
50955;DHT22;36966;48.064;-0.792;2022-11-24T02:56:00;17.30;53.80
50955;DHT22;36966;48.064;-0.792;2022-11-24T02:58:19;17.20;53.70
50955;DHT22;36966;48.064;-0.792;2022-11-24T03:00:39;17.30;53.70
50955;DHT22;36966;48.064;-0.792;2022-11-24T03:02:58;17.20;53.70
50955;DHT22;36966;48.064;-0.792;2022-11-24T03:05:18;17.20;53.70
50955;DHT22;36966;48.064;-0.792;2022-11-24T03:07:37;17.30;53.70
50955;DHT22;36966;48.064;-0.792;2022-11-24T03:09:56;17.20;53.70
50955;DHT22;36966;48.064;-0.792;2022-11-24T03:12:15;17.20;53.70
50955;DHT22;36966;48.064;-0.792;2022-11-24T03:14:35;17.20;53.80
50955;DHT22;36966;48.064;-0.792;2022-11-24T03:16:54;17.20;53.80
50955;DHT22;36966;48.064;-0.792;2022-11-24T03:19:13;17.20;53.80
50955;DHT22;36966;48.064;-0.792;2022-11-24T03:21:32;17.20;53.80
50955;DHT22;36966;48.064;-0.792;2022-11-24T03:23:53;17.20;53.80
50955;DHT22;36966;48.064;-0.792;2022-11-24T03:26:17;17.20;53.90
50955;DHT22;36966;48.064;-0.792;2022-11-24T03:28:36;17.20;53.90
50955;DHT22;36966;48.064;-0.792;2022-11-24T03:30:56;17.20;53.90
50955;DHT22;36966;48.064;-0.792;2022-11-24T03:33:15;17.20;53.90
50955;DHT22;36966;48.064;-0.792;2022-11-24T03:35:34;17.20;53.80
50955;DHT22;36966;48.064;-0.792;2022-11-24T03:37:54;17.20;53.80
50955;DHT22;36966;48.064;-0.792;2022-11-24T03:40:13;17.20;53.80
50955;DHT22;36966;48.064;-0.792;2022-11-24T03:42:32;17.20;53.90
50955;DHT22;36966;48.064;-0.792;2022-11-24T03:44:52;17.20;53.90
50955;DHT22;36966;48.064;-0.792;2022-11-24T03:47:11;17.20;53.90
50955;DHT22;36966;48.064;-0.792;2022-11-24T03:49:30;17.20;53.90
50955;DHT22;36966;48.064;-0.792;2022-11-24T03:51:49;17.20;53.90
50955;DHT22;36966;48.064;-0.792;2022-11-24T03:54:09;17.20;53.90
50955;DHT22;36966;48.064;-0.792;2022-11-24T03:56:28;17.20;53.90
50955;DHT22;36966;48.064;-0.792;2022-11-24T03:58:47;17.20;53.90
50955;DHT22;36966;48.064;-0.792;2022-11-24T04:01:06;17.20;54.00
50955;DHT22;36966;48.064;-0.792;2022-11-24T04:03:25;17.20;54.00
50955;DHT22;36966;48.064;-0.792;2022-11-24T04:05:45;17.20;54.10
50955;DHT22;36966;48.064;-0.792;2022-11-24T04:08:05;17.20;54.10
50955;DHT22;36966;48.064;-0.792;2022-11-24T04:10:25;17.20;54.10
50955;DHT22;36966;48.064;-0.792;2022-11-24T04:12:44;17.20;54.00
50955;DHT22;36966;48.064;-0.792;2022-11-24T04:15:03;17.20;54.00
50955;DHT22;36966;48.064;-0.792;2022-11-24T04:17:23;17.20;54.00
50955;DHT22;36966;48.064;-0.792;2022-11-24T04:19:42;17.20;53.90
50955;DHT22;36966;48.064;-0.792;2022-11-24T04:22:01;17.20;53.90
50955;DHT22;36966;48.064;-0.792;2022-11-24T04:24:20;17.20;53.90
50955;DHT22;36966;48.064;-0.792;2022-11-24T04:26:39;17.20;53.80
50955;DHT22;36966;48.064;-0.792;2022-11-24T04:28:58;17.20;53.90
50955;DHT22;36966;48.064;-0.792;2022-11-24T04:31:18;17.20;53.90
50955;DHT22;36966;48.064;-0.792;2022-11-24T04:33:37;17.20;53.80
50955;DHT22;36966;48.064;-0.792;2022-11-24T04:35:56;17.20;53.80
50955;DHT22;36966;48.064;-0.792;2022-11-24T04:38:16;17.20;53.80
50955;DHT22;36966;48.064;-0.792;2022-11-24T04:40:35;17.10;53.80
50955;DHT22;36966;48.064;-0.792;2022-11-24T04:42:55;17.10;53.80
50955;DHT22;36966;48.064;-0.792;2022-11-24T04:45:14;17.20;53.80
50955;DHT22;36966;48.064;-0.792;2022-11-24T04:47:34;17.10;53.80
50955;DHT22;36966;48.064;-0.792;2022-11-24T04:49:53;17.20;53.80
50955;DHT22;36966;48.064;-0.792;2022-11-24T04:52:13;17.20;54.60
50955;DHT22;36966;48.064;-0.792;2022-11-24T04:54:32;17.20;54.50
50955;DHT22;36966;48.064;-0.792;2022-11-24T04:56:52;17.20;54.30
50955;DHT22;36966;48.064;-0.792;2022-11-24T04:59:14;17.10;54.10
50955;DHT22;36966;48.064;-0.792;2022-11-24T05:01:34;17.10;54.00
50955;DHT22;36966;48.064;-0.792;2022-11-24T05:03:54;17.20;53.90
50955;DHT22;36966;48.064;-0.792;2022-11-24T05:06:13;17.10;53.80
50955;DHT22;36966;48.064;-0.792;2022-11-24T05:08:32;17.10;53.80
50955;DHT22;36966;48.064;-0.792;2022-11-24T05:10:51;17.10;53.80
50955;DHT22;36966;48.064;-0.792;2022-11-24T05:13:12;17.10;53.70
50955;DHT22;36966;48.064;-0.792;2022-11-24T05:15:32;17.10;53.70
50955;DHT22;36966;48.064;-0.792;2022-11-24T05:17:52;17.10;53.70
50955;DHT22;36966;48.064;-0.792;2022-11-24T05:20:11;17.10;53.70
50955;DHT22;36966;48.064;-0.792;2022-11-24T05:22:30;17.10;53.70
50955;DHT22;36966;48.064;-0.792;2022-11-24T05:24:50;17.10;53.70
50955;DHT22;36966;48.064;-0.792;2022-11-24T05:27:10;17.10;53.70
50955;DHT22;36966;48.064;-0.792;2022-11-24T05:29:29;17.10;53.70
50955;DHT22;36966;48.064;-0.792;2022-11-24T05:31:48;17.10;53.70
50955;DHT22;36966;48.064;-0.792;2022-11-24T05:34:07;17.00;53.70
50955;DHT22;36966;48.064;-0.792;2022-11-24T05:36:28;17.10;53.70
50955;DHT22;36966;48.064;-0.792;2022-11-24T05:39:06;17.00;53.70
50955;DHT22;36966;48.064;-0.792;2022-11-24T05:41:25;17.00;53.70
50955;DHT22;36966;48.064;-0.792;2022-11-24T05:43:44;17.10;53.70
50955;DHT22;36966;48.064;-0.792;2022-11-24T05:46:03;17.10;53.70
50955;DHT22;36966;48.064;-0.792;2022-11-24T05:48:23;17.00;53.70
50955;DHT22;36966;48.064;-0.792;2022-11-24T05:50:42;17.00;53.70
50955;DHT22;36966;48.064;-0.792;2022-11-24T05:53:06;17.00;53.70
50955;DHT22;36966;48.064;-0.792;2022-11-24T05:55:26;17.00;53.70
50955;DHT22;36966;48.064;-0.792;2022-11-24T05:57:45;17.00;53.70
50955;DHT22;36966;48.064;-0.792;2022-11-24T06:00:05;17.00;53.70
50955;DHT22;36966;48.064;-0.792;2022-11-24T06:02:25;17.00;53.70
50955;DHT22;36966;48.064;-0.792;2022-11-24T06:04:45;17.10;53.70
50955;DHT22;36966;48.064;-0.792;2022-11-24T06:07:07;17.00;53.70
50955;DHT22;36966;48.064;-0.792;2022-11-24T06:09:27;17.00;53.70
50955;DHT22;36966;48.064;-0.792;2022-11-24T06:11:47;17.00;53.70
50955;DHT22;36966;48.064;-0.792;2022-11-24T06:14:07;17.00;53.70
50955;DHT22;36966;48.064;-0.792;2022-11-24T06:16:27;17.00;53.80
50955;DHT22;36966;48.064;-0.792;2022-11-24T06:18:46;17.00;53.80
50955;DHT22;36966;48.064;-0.792;2022-11-24T06:21:06;17.00;53.80
50955;DHT22;36966;48.064;-0.792;2022-11-24T06:23:25;17.00;53.80
50955;DHT22;36966;48.064;-0.792;2022-11-24T06:25:44;17.00;53.90
50955;DHT22;36966;48.064;-0.792;2022-11-24T06:28:03;17.00;53.90
50955;DHT22;36966;48.064;-0.792;2022-11-24T06:30:23;17.00;53.90
50955;DHT22;36966;48.064;-0.792;2022-11-24T06:32:42;17.00;53.90
50955;DHT22;36966;48.064;-0.792;2022-11-24T06:35:03;17.00;53.90
50955;DHT22;36966;48.064;-0.792;2022-11-24T06:37:23;17.00;53.90
50955;DHT22;36966;48.064;-0.792;2022-11-24T06:39:42;17.00;53.90
50955;DHT22;36966;48.064;-0.792;2022-11-24T06:42:01;17.00;53.90
50955;DHT22;36966;48.064;-0.792;2022-11-24T06:44:20;17.00;53.90
50955;DHT22;36966;48.064;-0.792;2022-11-24T06:46:40;17.00;53.90
50955;DHT22;36966;48.064;-0.792;2022-11-24T06:48:59;17.00;53.90
50955;DHT22;36966;48.064;-0.792;2022-11-24T06:51:20;17.00;53.90
50955;DHT22;36966;48.064;-0.792;2022-11-24T06:53:40;17.00;53.90
50955;DHT22;36966;48.064;-0.792;2022-11-24T06:55:59;17.00;53.90
50955;DHT22;36966;48.064;-0.792;2022-11-24T06:58:19;17.00;53.90
50955;DHT22;36966;48.064;-0.792;2022-11-24T07:00:38;16.90;53.90
50955;DHT22;36966;48.064;-0.792;2022-11-24T07:02:58;17.00;54.00
50955;DHT22;36966;48.064;-0.792;2022-11-24T07:05:18;17.00;54.00
50955;DHT22;36966;48.064;-0.792;2022-11-24T07:07:37;17.00;54.00
50955;DHT22;36966;48.064;-0.792;2022-11-24T07:09:56;17.00;54.00
50955;DHT22;36966;48.064;-0.792;2022-11-24T07:12:15;17.00;54.00
50955;DHT22;36966;48.064;-0.792;2022-11-24T07:14:34;16.90;54.00
50955;DHT22;36966;48.064;-0.792;2022-11-24T07:16:53;17.00;54.00
50955;DHT22;36966;48.064;-0.792;2022-11-24T07:19:12;16.90;54.10
50955;DHT22;36966;48.064;-0.792;2022-11-24T07:21:31;16.90;54.00
50955;DHT22;36966;48.064;-0.792;2022-11-24T07:23:52;16.90;54.00
50955;DHT22;36966;48.064;-0.792;2022-11-24T07:26:11;16.90;54.00
50955;DHT22;36966;48.064;-0.792;2022-11-24T07:28:31;16.90;54.00
50955;DHT22;36966;48.064;-0.792;2022-11-24T07:30:50;16.90;54.00
50955;DHT22;36966;48.064;-0.792;2022-11-24T07:33:10;16.90;54.00
50955;DHT22;36966;48.064;-0.792;2022-11-24T07:35:29;16.90;54.00
50955;DHT22;36966;48.064;-0.792;2022-11-24T07:37:48;17.00;54.00
50955;DHT22;36966;48.064;-0.792;2022-11-24T07:40:08;17.00;54.00
50955;DHT22;36966;48.064;-0.792;2022-11-24T07:42:27;16.90;53.90
50955;DHT22;36966;48.064;-0.792;2022-11-24T07:44:46;16.90;53.90
50955;DHT22;36966;48.064;-0.792;2022-11-24T07:47:05;16.90;53.90
50955;DHT22;36966;48.064;-0.792;2022-11-24T07:49:24;16.90;53.80
50955;DHT22;36966;48.064;-0.792;2022-11-24T07:51:44;16.90;53.80
50955;DHT22;36966;48.064;-0.792;2022-11-24T07:54:03;17.00;53.80
50955;DHT22;36966;48.064;-0.792;2022-11-24T07:56:22;16.90;53.80
50955;DHT22;36966;48.064;-0.792;2022-11-24T07:58:41;17.00;53.80
50955;DHT22;36966;48.064;-0.792;2022-11-24T08:01:15;17.00;53.80
50955;DHT22;36966;48.064;-0.792;2022-11-24T08:03:35;16.90;53.70
50955;DHT22;36966;48.064;-0.792;2022-11-24T08:05:55;17.00;53.70
50955;DHT22;36966;48.064;-0.792;2022-11-24T08:08:15;17.00;53.70
50955;DHT22;36966;48.064;-0.792;2022-11-24T08:10:34;17.00;53.70
50955;DHT22;36966;48.064;-0.792;2022-11-24T08:12:53;17.00;53.70
50955;DHT22;36966;48.064;-0.792;2022-11-24T08:15:12;17.00;53.70
50955;DHT22;36966;48.064;-0.792;2022-11-24T08:17:31;17.00;53.70
50955;DHT22;36966;48.064;-0.792;2022-11-24T08:19:51;17.00;53.70
50955;DHT22;36966;48.064;-0.792;2022-11-24T08:22:11;17.10;53.70
50955;DHT22;36966;48.064;-0.792;2022-11-24T08:24:30;17.00;53.70
50955;DHT22;36966;48.064;-0.792;2022-11-24T08:26:49;17.00;53.60
50955;DHT22;36966;48.064;-0.792;2022-11-24T08:29:08;17.10;53.70
50955;DHT22;36966;48.064;-0.792;2022-11-24T08:31:28;17.00;53.70
50955;DHT22;36966;48.064;-0.792;2022-11-24T08:33:53;17.10;53.70
50955;DHT22;36966;48.064;-0.792;2022-11-24T08:36:15;17.10;53.70
50955;DHT22;36966;48.064;-0.792;2022-11-24T08:38:36;17.20;53.70
50955;DHT22;36966;48.064;-0.792;2022-11-24T08:41:02;17.10;53.80
50955;DHT22;36966;48.064;-0.792;2022-11-24T08:43:22;17.20;53.70
50955;DHT22;36966;48.064;-0.792;2022-11-24T08:45:41;17.20;53.80
50955;DHT22;36966;48.064;-0.792;2022-11-24T08:48:00;17.20;53.80
50955;DHT22;36966;48.064;-0.792;2022-11-24T08:50:20;17.20;53.90
50955;DHT22;36966;48.064;-0.792;2022-11-24T08:52:40;17.20;53.90
50955;DHT22;36966;48.064;-0.792;2022-11-24T08:54:59;17.20;53.90
50955;DHT22;36966;48.064;-0.792;2022-11-24T08:57:18;17.20;54.00
50955;DHT22;36966;48.064;-0.792;2022-11-24T08:59:37;17.20;54.00
50955;DHT22;36966;48.064;-0.792;2022-11-24T09:01:56;17.20;54.20
50955;DHT22;36966;48.064;-0.792;2022-11-24T09:04:16;17.20;54.10
50955;DHT22;36966;48.064;-0.792;2022-11-24T09:06:35;17.30;54.30
50955;DHT22;36966;48.064;-0.792;2022-11-24T09:08:55;17.30;54.50
50955;DHT22;36966;48.064;-0.792;2022-11-24T09:11:15;17.30;54.30
50955;DHT22;36966;48.064;-0.792;2022-11-24T09:13:36;17.40;54.30
50955;DHT22;36966;48.064;-0.792;2022-11-24T09:15:55;17.40;54.40
50955;DHT22;36966;48.064;-0.792;2022-11-24T09:18:14;17.30;54.40
50955;DHT22;36966;48.064;-0.792;2022-11-24T09:20:34;17.40;54.50
50955;DHT22;36966;48.064;-0.792;2022-11-24T09:22:54;17.40;54.50
50955;DHT22;36966;48.064;-0.792;2022-11-24T09:25:14;17.40;54.50
50955;DHT22;36966;48.064;-0.792;2022-11-24T09:27:33;17.40;54.60
50955;DHT22;36966;48.064;-0.792;2022-11-24T09:29:52;17.40;54.50
50955;DHT22;36966;48.064;-0.792;2022-11-24T09:32:11;17.40;54.40
50955;DHT22;36966;48.064;-0.792;2022-11-24T09:34:30;17.40;54.60
50955;DHT22;36966;48.064;-0.792;2022-11-24T09:36:49;17.40;54.50
50955;DHT22;36966;48.064;-0.792;2022-11-24T09:39:09;17.40;54.50
50955;DHT22;36966;48.064;-0.792;2022-11-24T09:41:53;17.40;54.50
50955;DHT22;36966;48.064;-0.792;2022-11-24T09:49:46;17.40;54.60
50955;DHT22;36966;48.064;-0.792;2022-11-24T09:52:12;17.40;54.60
50955;DHT22;36966;48.064;-0.792;2022-11-24T09:54:34;17.40;54.60
50955;DHT22;36966;48.064;-0.792;2022-11-24T09:56:59;17.40;54.90
50955;DHT22;36966;48.064;-0.792;2022-11-24T09:59:20;17.50;55.20
50955;DHT22;36966;48.064;-0.792;2022-11-24T10:01:42;17.50;55.40
50955;DHT22;36966;48.064;-0.792;2022-11-24T10:04:02;17.50;55.60
50955;DHT22;36966;48.064;-0.792;2022-11-24T10:06:39;17.50;55.60
50955;DHT22;36966;48.064;-0.792;2022-11-24T10:16:52;17.60;56.30
50955;DHT22;36966;48.064;-0.792;2022-11-24T10:26:54;17.80;56.50
50955;DHT22;36966;48.064;-0.792;2022-11-24T10:29:19;17.90;56.30
50955;DHT22;36966;48.064;-0.792;2022-11-24T10:31:41;17.90;56.80
50955;DHT22;36966;48.064;-0.792;2022-11-24T10:34:15;18.00;56.90
50955;DHT22;36966;48.064;-0.792;2022-11-24T10:40:16;18.00;56.90
50955;DHT22;36966;48.064;-0.792;2022-11-24T10:42:29;18.00;56.90
50955;DHT22;36966;48.064;-0.792;2022-11-24T10:44:57;18.00;57.00
50955;DHT22;36966;48.064;-0.792;2022-11-24T10:47:20;18.00;57.10
50955;DHT22;36966;48.064;-0.792;2022-11-24T10:49:48;18.00;57.00
50955;DHT22;36966;48.064;-0.792;2022-11-24T10:52:15;17.90;56.80
50955;DHT22;36966;48.064;-0.792;2022-11-24T10:55:02;17.90;56.80
50955;DHT22;36966;48.064;-0.792;2022-11-24T10:57:34;17.90;56.80
50955;DHT22;36966;48.064;-0.792;2022-11-24T10:59:53;17.90;56.90
50955;DHT22;36966;48.064;-0.792;2022-11-24T11:04:48;17.80;57.10
50955;DHT22;36966;48.064;-0.792;2022-11-24T11:09:32;17.70;57.20
50955;DHT22;36966;48.064;-0.792;2022-11-24T11:11:52;17.80;57.10
50955;DHT22;36966;48.064;-0.792;2022-11-24T11:14:12;17.80;57.00
50955;DHT22;36966;48.064;-0.792;2022-11-24T11:16:51;17.70;57.10
50955;DHT22;36966;48.064;-0.792;2022-11-24T11:19:42;17.70;56.90
50955;DHT22;36966;48.064;-0.792;2022-11-24T11:22:14;17.70;57.20
50955;DHT22;36966;48.064;-0.792;2022-11-24T11:24:46;17.70;57.10
50955;DHT22;36966;48.064;-0.792;2022-11-24T11:27:23;17.70;57.10
50955;DHT22;36966;48.064;-0.792;2022-11-24T11:29:43;17.70;57.20
50955;DHT22;36966;48.064;-0.792;2022-11-24T11:32:21;17.60;57.20
50955;DHT22;36966;48.064;-0.792;2022-11-24T11:34:41;17.70;57.20
50955;DHT22;36966;48.064;-0.792;2022-11-24T11:37:02;17.60;57.20
50955;DHT22;36966;48.064;-0.792;2022-11-24T11:39:31;17.60;57.40
50955;DHT22;36966;48.064;-0.792;2022-11-24T11:41:54;17.60;57.40
50955;DHT22;36966;48.064;-0.792;2022-11-24T11:46:57;17.60;57.50
50955;DHT22;36966;48.064;-0.792;2022-11-24T11:49:17;17.60;57.60
50955;DHT22;36966;48.064;-0.792;2022-11-24T11:56:38;17.50;57.70
50955;DHT22;36966;48.064;-0.792;2022-11-24T11:59:34;17.50;57.90
50955;DHT22;36966;48.064;-0.792;2022-11-24T12:05:10;17.50;57.80
50955;DHT22;36966;48.064;-0.792;2022-11-24T12:15:35;17.50;58.30
50955;DHT22;36966;48.064;-0.792;2022-11-24T12:23:36;17.50;58.50
50955;DHT22;36966;48.064;-0.792;2022-11-24T12:26:08;17.50;58.50
50955;DHT22;36966;48.064;-0.792;2022-11-24T12:47:17;17.50;59.30
50955;DHT22;36966;48.064;-0.792;2022-11-24T12:49:54;17.40;59.20
50955;DHT22;36966;48.064;-0.792;2022-11-24T12:52:28;17.40;59.20
50955;DHT22;36966;48.064;-0.792;2022-11-24T12:54:49;17.40;59.20
50955;DHT22;36966;48.064;-0.792;2022-11-24T12:57:24;17.50;59.30
50955;DHT22;36966;48.064;-0.792;2022-11-24T13:02:37;17.40;59.60
50955;DHT22;36966;48.064;-0.792;2022-11-24T13:05:30;17.40;59.60
50955;DHT22;36966;48.064;-0.792;2022-11-24T13:07:59;17.40;59.50
50955;DHT22;36966;48.064;-0.792;2022-11-24T13:15:15;17.40;59.60
50955;DHT22;36966;48.064;-0.792;2022-11-24T13:17:34;17.50;59.70
50955;DHT22;36966;48.064;-0.792;2022-11-24T13:22:38;17.50;59.70
50955;DHT22;36966;48.064;-0.792;2022-11-24T13:27:45;17.50;59.70
50955;DHT22;36966;48.064;-0.792;2022-11-24T13:35:31;17.50;60.00
50955;DHT22;36966;48.064;-0.792;2022-11-24T13:37:50;17.50;59.90
50955;DHT22;36966;48.064;-0.792;2022-11-24T13:42:30;17.50;60.10
50955;DHT22;36966;48.064;-0.792;2022-11-24T13:44:54;17.60;60.00
50955;DHT22;36966;48.064;-0.792;2022-11-24T13:47:39;17.60;60.20
50955;DHT22;36966;48.064;-0.792;2022-11-24T13:50:02;17.50;60.10
50955;DHT22;36966;48.064;-0.792;2022-11-24T13:52:41;17.60;60.00
50955;DHT22;36966;48.064;-0.792;2022-11-24T13:55:17;17.60;60.20
50955;DHT22;36966;48.064;-0.792;2022-11-24T13:57:43;17.60;60.20
50955;DHT22;36966;48.064;-0.792;2022-11-24T14:00:13;17.60;60.00
50955;DHT22;36966;48.064;-0.792;2022-11-24T14:02:36;17.60;60.10
50955;DHT22;36966;48.064;-0.792;2022-11-24T14:04:57;17.50;60.10
50955;DHT22;36966;48.064;-0.792;2022-11-24T14:07:16;17.60;60.00
50955;DHT22;36966;48.064;-0.792;2022-11-24T14:09:43;17.50;60.10
50955;DHT22;36966;48.064;-0.792;2022-11-24T14:12:10;17.50;60.00
50955;DHT22;36966;48.064;-0.792;2022-11-24T14:14:31;17.50;60.00
50955;DHT22;36966;48.064;-0.792;2022-11-24T14:19:32;17.50;59.80
50955;DHT22;36966;48.064;-0.792;2022-11-24T14:21:52;17.50;59.90
50955;DHT22;36966;48.064;-0.792;2022-11-24T14:24:31;17.50;60.00
50955;DHT22;36966;48.064;-0.792;2022-11-24T14:26:51;17.50;59.90
50955;DHT22;36966;48.064;-0.792;2022-11-24T14:29:19;17.50;60.00
50955;DHT22;36966;48.064;-0.792;2022-11-24T14:31:39;17.50;60.10
50955;DHT22;36966;48.064;-0.792;2022-11-24T14:34:27;17.50;60.20
50955;DHT22;36966;48.064;-0.792;2022-11-24T14:36:48;17.50;60.30
50955;DHT22;36966;48.064;-0.792;2022-11-24T14:39:15;17.50;60.30
50955;DHT22;36966;48.064;-0.792;2022-11-24T14:41:35;17.50;60.30
50955;DHT22;36966;48.064;-0.792;2022-11-24T14:44:15;17.50;60.30
50955;DHT22;36966;48.064;-0.792;2022-11-24T14:46:36;17.50;60.30
50955;DHT22;36966;48.064;-0.792;2022-11-24T14:48:55;17.50;60.40
50955;DHT22;36966;48.064;-0.792;2022-11-24T14:51:23;17.50;60.40
50955;DHT22;36966;48.064;-0.792;2022-11-24T14:53:44;17.50;60.50
50955;DHT22;36966;48.064;-0.792;2022-11-24T14:58:30;17.50;60.30
50955;DHT22;36966;48.064;-0.792;2022-11-24T15:01:16;17.50;60.50
50955;DHT22;36966;48.064;-0.792;2022-11-24T15:03:36;17.50;60.30
50955;DHT22;36966;48.064;-0.792;2022-11-24T15:05:57;17.50;60.30
50955;DHT22;36966;48.064;-0.792;2022-11-24T15:08:18;17.50;60.30
50955;DHT22;36966;48.064;-0.792;2022-11-24T15:10:38;17.50;60.20
50955;DHT22;36966;48.064;-0.792;2022-11-24T15:12:59;17.50;60.30
50955;DHT22;36966;48.064;-0.792;2022-11-24T15:15:22;17.50;60.10
50955;DHT22;36966;48.064;-0.792;2022-11-24T15:17:57;17.50;60.10
50955;DHT22;36966;48.064;-0.792;2022-11-24T15:22:48;17.50;60.10
50955;DHT22;36966;48.064;-0.792;2022-11-24T15:25:31;17.50;60.20
50955;DHT22;36966;48.064;-0.792;2022-11-24T15:27:52;17.50;60.10
50955;DHT22;36966;48.064;-0.792;2022-11-24T15:30:11;17.50;60.50
50955;DHT22;36966;48.064;-0.792;2022-11-24T15:32:30;17.60;60.50
50955;DHT22;36966;48.064;-0.792;2022-11-24T15:34:49;17.50;60.50
50955;DHT22;36966;48.064;-0.792;2022-11-24T15:37:08;17.50;60.60
50955;DHT22;36966;48.064;-0.792;2022-11-24T15:39:27;17.60;60.80
50955;DHT22;36966;48.064;-0.792;2022-11-24T15:41:46;17.50;60.80
50955;DHT22;36966;48.064;-0.792;2022-11-24T15:44:06;17.50;60.70
50955;DHT22;36966;48.064;-0.792;2022-11-24T15:46:28;17.50;60.50
50955;DHT22;36966;48.064;-0.792;2022-11-24T15:48:47;17.50;60.50
50955;DHT22;36966;48.064;-0.792;2022-11-24T15:51:11;17.50;60.40
50955;DHT22;36966;48.064;-0.792;2022-11-24T15:53:51;17.50;60.30
50955;DHT22;36966;48.064;-0.792;2022-11-24T15:56:14;17.50;60.20
50955;DHT22;36966;48.064;-0.792;2022-11-24T15:58:36;17.50;60.20
50955;DHT22;36966;48.064;-0.792;2022-11-24T16:00:55;17.50;60.20
50955;DHT22;36966;48.064;-0.792;2022-11-24T16:03:15;17.50;60.20
50955;DHT22;36966;48.064;-0.792;2022-11-24T16:05:36;17.50;60.20
50955;DHT22;36966;48.064;-0.792;2022-11-24T16:07:55;17.50;60.30
50955;DHT22;36966;48.064;-0.792;2022-11-24T16:10:25;17.40;60.40
50955;DHT22;36966;48.064;-0.792;2022-11-24T16:12:45;17.40;60.40
50955;DHT22;36966;48.064;-0.792;2022-11-24T16:15:04;17.40;60.40
50955;DHT22;36966;48.064;-0.792;2022-11-24T16:17:24;17.40;60.40
50955;DHT22;36966;48.064;-0.792;2022-11-24T16:19:43;17.40;60.40
50955;DHT22;36966;48.064;-0.792;2022-11-24T16:22:02;17.40;60.50
50955;DHT22;36966;48.064;-0.792;2022-11-24T16:24:24;17.40;60.40
50955;DHT22;36966;48.064;-0.792;2022-11-24T16:26:43;17.40;60.40
50955;DHT22;36966;48.064;-0.792;2022-11-24T16:29:02;17.40;60.40
50955;DHT22;36966;48.064;-0.792;2022-11-24T16:31:22;17.40;60.30
50955;DHT22;36966;48.064;-0.792;2022-11-24T16:33:41;17.40;60.30